sensor_id;sensor_type;location;lat;lon;timestamp;P1;durP1;ratioP1;P2;durP2;ratioP2
26163;SDS011;13914;48.178;11.716;2022-09-27T00:00:36;3.83;;;0.95;;
26163;SDS011;13914;48.178;11.716;2022-09-27T00:03:02;2.80;;;1.27;;
26163;SDS011;13914;48.178;11.716;2022-09-27T00:05:28;4.85;;;1.27;;
26163;SDS011;13914;48.178;11.716;2022-09-27T00:07:54;1.58;;;0.98;;
26163;SDS011;13914;48.178;11.716;2022-09-27T00:10:21;4.80;;;1.98;;
26163;SDS011;13914;48.178;11.716;2022-09-27T00:12:47;1.75;;;1.10;;
26163;SDS011;13914;48.178;11.716;2022-09-27T00:15:12;4.28;;;1.00;;
26163;SDS011;13914;48.178;11.716;2022-09-27T00:17:39;5.57;;;1.20;;
26163;SDS011;13914;48.178;11.716;2022-09-27T00:20:05;3.03;;;1.30;;
26163;SDS011;13914;48.178;11.716;2022-09-27T00:22:32;3.05;;;1.10;;
26163;SDS011;13914;48.178;11.716;2022-09-27T00:24:59;4.63;;;1.27;;
26163;SDS011;13914;48.178;11.716;2022-09-27T00:27:25;1.45;;;0.88;;
26163;SDS011;13914;48.178;11.716;2022-09-27T00:29:52;4.72;;;0.80;;
26163;SDS011;13914;48.178;11.716;2022-09-27T00:32:18;2.03;;;1.10;;
26163;SDS011;13914;48.178;11.716;2022-09-27T00:34:44;2.28;;;0.90;;
26163;SDS011;13914;48.178;11.716;2022-09-27T00:37:10;4.30;;;1.10;;
26163;SDS011;13914;48.178;11.716;2022-09-27T00:39:36;4.38;;;1.30;;
26163;SDS011;13914;48.178;11.716;2022-09-27T00:42:09;6.90;;;1.10;;
26163;SDS011;13914;48.178;11.716;2022-09-27T00:47:09;4.35;;;1.27;;
26163;SDS011;13914;48.178;11.716;2022-09-27T00:49:41;3.35;;;1.15;;
26163;SDS011;13914;48.178;11.716;2022-09-27T00:53:03;3.88;;;0.85;;
26163;SDS011;13914;48.178;11.716;2022-09-27T00:55:42;3.70;;;1.02;;
26163;SDS011;13914;48.178;11.716;2022-09-27T00:58:21;1.67;;;0.93;;
26163;SDS011;13914;48.178;11.716;2022-09-27T01:00:55;1.63;;;0.93;;
26163;SDS011;13914;48.178;11.716;2022-09-27T01:03:29;2.28;;;1.10;;
26163;SDS011;13914;48.178;11.716;2022-09-27T01:06:09;3.60;;;1.20;;
26163;SDS011;13914;48.178;11.716;2022-09-27T01:08:36;1.50;;;0.95;;
26163;SDS011;13914;48.178;11.716;2022-09-27T01:11:20;4.00;;;1.23;;
26163;SDS011;13914;48.178;11.716;2022-09-27T01:14:03;2.17;;;1.02;;
26163;SDS011;13914;48.178;11.716;2022-09-27T01:25:58;2.58;;;1.08;;
26163;SDS011;13914;48.178;11.716;2022-09-27T01:40:01;2.60;;;1.25;;
26163;SDS011;13914;48.178;11.716;2022-09-27T01:42:46;5.00;;;1.45;;
26163;SDS011;13914;48.178;11.716;2022-09-27T01:45:23;2.50;;;1.05;;
26163;SDS011;13914;48.178;11.716;2022-09-27T01:48:06;4.38;;;1.83;;
26163;SDS011;13914;48.178;11.716;2022-09-27T01:50:54;5.00;;;1.83;;
26163;SDS011;13914;48.178;11.716;2022-09-27T01:53:36;2.30;;;1.00;;
26163;SDS011;13914;48.178;11.716;2022-09-27T01:56:09;3.67;;;1.10;;
26163;SDS011;13914;48.178;11.716;2022-09-27T01:58:44;4.85;;;1.00;;
26163;SDS011;13914;48.178;11.716;2022-09-27T02:01:16;2.60;;;1.10;;
26163;SDS011;13914;48.178;11.716;2022-09-27T02:03:49;2.28;;;1.20;;
26163;SDS011;13914;48.178;11.716;2022-09-27T02:06:23;4.22;;;1.20;;
26163;SDS011;13914;48.178;11.716;2022-09-27T02:09:00;2.58;;;1.13;;
26163;SDS011;13914;48.178;11.716;2022-09-27T02:11:36;2.95;;;0.85;;
26163;SDS011;13914;48.178;11.716;2022-09-27T02:14:25;3.92;;;1.25;;
26163;SDS011;13914;48.178;11.716;2022-09-27T02:16:59;3.35;;;1.30;;
26163;SDS011;13914;48.178;11.716;2022-09-27T02:22:52;5.43;;;1.30;;
26163;SDS011;13914;48.178;11.716;2022-09-27T02:25:24;4.10;;;1.30;;
26163;SDS011;13914;48.178;11.716;2022-09-27T02:27:58;1.90;;;1.20;;
26163;SDS011;13914;48.178;11.716;2022-09-27T02:30:26;3.78;;;1.60;;
26163;SDS011;13914;48.178;11.716;2022-09-27T02:32:52;3.67;;;1.58;;
26163;SDS011;13914;48.178;11.716;2022-09-27T02:35:21;5.25;;;1.70;;
26163;SDS011;13914;48.178;11.716;2022-09-27T02:37:53;6.68;;;1.90;;
26163;SDS011;13914;48.178;11.716;2022-09-27T02:40:21;3.20;;;1.58;;
26163;SDS011;13914;48.178;11.716;2022-09-27T02:42:48;2.65;;;1.38;;
26163;SDS011;13914;48.178;11.716;2022-09-27T02:47:48;4.57;;;1.48;;
26163;SDS011;13914;48.178;11.716;2022-09-27T03:04:54;2.28;;;1.13;;
26163;SDS011;13914;48.178;11.716;2022-09-27T03:07:25;2.20;;;1.35;;
26163;SDS011;13914;48.178;11.716;2022-09-27T03:09:52;6.22;;;1.48;;
26163;SDS011;13914;48.178;11.716;2022-09-27T03:12:18;3.47;;;1.30;;
26163;SDS011;13914;48.178;11.716;2022-09-27T03:14:53;5.05;;;1.35;;
26163;SDS011;13914;48.178;11.716;2022-09-27T03:17:21;4.20;;;1.42;;
26163;SDS011;13914;48.178;11.716;2022-09-27T03:19:47;5.20;;;1.60;;
26163;SDS011;13914;48.178;11.716;2022-09-27T03:22:13;3.92;;;1.40;;
26163;SDS011;13914;48.178;11.716;2022-09-27T03:24:40;5.43;;;1.38;;
26163;SDS011;13914;48.178;11.716;2022-09-27T03:27:06;4.03;;;1.40;;
26163;SDS011;13914;48.178;11.716;2022-09-27T03:29:32;5.32;;;1.63;;
26163;SDS011;13914;48.178;11.716;2022-09-27T03:31:58;12.93;;;1.60;;
26163;SDS011;13914;48.178;11.716;2022-09-27T03:34:24;4.47;;;1.20;;
26163;SDS011;13914;48.178;11.716;2022-09-27T03:36:50;4.15;;;1.40;;
26163;SDS011;13914;48.178;11.716;2022-09-27T03:39:17;8.00;;;1.33;;
26163;SDS011;13914;48.178;11.716;2022-09-27T03:41:43;4.38;;;1.25;;
26163;SDS011;13914;48.178;11.716;2022-09-27T03:44:08;2.92;;;1.52;;
26163;SDS011;13914;48.178;11.716;2022-09-27T03:46:34;5.55;;;1.27;;
26163;SDS011;13914;48.178;11.716;2022-09-27T03:49:00;3.33;;;1.42;;
26163;SDS011;13914;48.178;11.716;2022-09-27T03:51:27;4.95;;;1.33;;
26163;SDS011;13914;48.178;11.716;2022-09-27T03:53:53;4.72;;;1.60;;
26163;SDS011;13914;48.178;11.716;2022-09-27T03:56:19;4.55;;;1.50;;
26163;SDS011;13914;48.178;11.716;2022-09-27T03:58:45;2.38;;;1.25;;
26163;SDS011;13914;48.178;11.716;2022-09-27T04:01:10;5.63;;;1.30;;
26163;SDS011;13914;48.178;11.716;2022-09-27T04:03:36;2.45;;;1.50;;
26163;SDS011;13914;48.178;11.716;2022-09-27T04:06:02;3.05;;;1.52;;
26163;SDS011;13914;48.178;11.716;2022-09-27T04:08:29;2.67;;;1.67;;
26163;SDS011;13914;48.178;11.716;2022-09-27T04:10:56;2.92;;;1.13;;
26163;SDS011;13914;48.178;11.716;2022-09-27T04:13:22;3.70;;;1.50;;
26163;SDS011;13914;48.178;11.716;2022-09-27T04:15:48;4.15;;;1.45;;
26163;SDS011;13914;48.178;11.716;2022-09-27T04:18:14;2.97;;;1.40;;
26163;SDS011;13914;48.178;11.716;2022-09-27T04:20:40;2.63;;;1.38;;
26163;SDS011;13914;48.178;11.716;2022-09-27T04:23:06;3.42;;;1.27;;
26163;SDS011;13914;48.178;11.716;2022-09-27T04:25:34;8.25;;;2.38;;
26163;SDS011;13914;48.178;11.716;2022-09-27T04:28:00;4.72;;;1.55;;
26163;SDS011;13914;48.178;11.716;2022-09-27T04:30:29;4.38;;;1.58;;
26163;SDS011;13914;48.178;11.716;2022-09-27T04:32:55;9.07;;;1.38;;
26163;SDS011;13914;48.178;11.716;2022-09-27T04:35:20;2.17;;;1.08;;
26163;SDS011;13914;48.178;11.716;2022-09-27T04:38:05;2.50;;;1.48;;
26163;SDS011;13914;48.178;11.716;2022-09-27T04:40:34;6.57;;;1.38;;
26163;SDS011;13914;48.178;11.716;2022-09-27T04:43:00;4.43;;;1.45;;
26163;SDS011;13914;48.178;11.716;2022-09-27T04:45:28;3.50;;;1.63;;
26163;SDS011;13914;48.178;11.716;2022-09-27T04:47:54;3.42;;;1.42;;
26163;SDS011;13914;48.178;11.716;2022-09-27T04:50:20;4.40;;;1.20;;
26163;SDS011;13914;48.178;11.716;2022-09-27T04:52:52;7.30;;;1.52;;
26163;SDS011;13914;48.178;11.716;2022-09-27T04:55:19;3.42;;;1.48;;
26163;SDS011;13914;48.178;11.716;2022-09-27T04:57:46;2.72;;;1.23;;
26163;SDS011;13914;48.178;11.716;2022-09-27T05:00:13;3.63;;;1.33;;
26163;SDS011;13914;48.178;11.716;2022-09-27T05:02:41;2.88;;;1.20;;
26163;SDS011;13914;48.178;11.716;2022-09-27T05:05:08;2.42;;;1.30;;
26163;SDS011;13914;48.178;11.716;2022-09-27T05:10:01;1.73;;;0.90;;
26163;SDS011;13914;48.178;11.716;2022-09-27T05:12:27;7.22;;;1.15;;
26163;SDS011;13914;48.178;11.716;2022-09-27T05:14:53;8.90;;;1.73;;
26163;SDS011;13914;48.178;11.716;2022-09-27T05:17:19;5.72;;;1.40;;
26163;SDS011;13914;48.178;11.716;2022-09-27T05:19:46;3.28;;;1.70;;
26163;SDS011;13914;48.178;11.716;2022-09-27T05:22:13;3.83;;;1.80;;
26163;SDS011;13914;48.178;11.716;2022-09-27T05:24:39;2.90;;;1.05;;
26163;SDS011;13914;48.178;11.716;2022-09-27T05:27:06;2.75;;;1.40;;
26163;SDS011;13914;48.178;11.716;2022-09-27T05:29:34;4.65;;;1.40;;
26163;SDS011;13914;48.178;11.716;2022-09-27T05:32:00;3.72;;;1.20;;
26163;SDS011;13914;48.178;11.716;2022-09-27T05:34:27;3.83;;;1.40;;
26163;SDS011;13914;48.178;11.716;2022-09-27T05:36:56;4.47;;;1.50;;
26163;SDS011;13914;48.178;11.716;2022-09-27T05:39:22;2.92;;;1.20;;
26163;SDS011;13914;48.178;11.716;2022-09-27T05:41:48;3.03;;;1.20;;
26163;SDS011;13914;48.178;11.716;2022-09-27T05:44:16;4.25;;;1.15;;
26163;SDS011;13914;48.178;11.716;2022-09-27T05:46:42;6.45;;;1.05;;
26163;SDS011;13914;48.178;11.716;2022-09-27T05:49:07;4.28;;;0.98;;
26163;SDS011;13914;48.178;11.716;2022-09-27T05:51:33;1.70;;;0.68;;
26163;SDS011;13914;48.178;11.716;2022-09-27T05:53:59;2.22;;;0.75;;
26163;SDS011;13914;48.178;11.716;2022-09-27T05:56:25;3.33;;;1.48;;
26163;SDS011;13914;48.178;11.716;2022-09-27T05:58:51;3.92;;;1.17;;
26163;SDS011;13914;48.178;11.716;2022-09-27T06:01:17;2.15;;;0.82;;
26163;SDS011;13914;48.178;11.716;2022-09-27T06:03:43;2.17;;;0.73;;
26163;SDS011;13914;48.178;11.716;2022-09-27T06:06:11;1.83;;;0.85;;
26163;SDS011;13914;48.178;11.716;2022-09-27T06:08:39;3.83;;;0.80;;
26163;SDS011;13914;48.178;11.716;2022-09-27T06:11:06;2.92;;;1.00;;
26163;SDS011;13914;48.178;11.716;2022-09-27T06:13:35;3.88;;;0.95;;
26163;SDS011;13914;48.178;11.716;2022-09-27T06:16:01;3.33;;;0.75;;
26163;SDS011;13914;48.178;11.716;2022-09-27T06:18:28;2.53;;;0.70;;
26163;SDS011;13914;48.178;11.716;2022-09-27T06:20:54;2.53;;;0.70;;
26163;SDS011;13914;48.178;11.716;2022-09-27T06:23:21;2.28;;;0.52;;
26163;SDS011;13914;48.178;11.716;2022-09-27T06:25:48;3.58;;;1.08;;
26163;SDS011;13914;48.178;11.716;2022-09-27T06:28:16;1.90;;;1.30;;
26163;SDS011;13914;48.178;11.716;2022-09-27T06:30:43;2.40;;;0.50;;
26163;SDS011;13914;48.178;11.716;2022-09-27T06:33:12;1.48;;;0.60;;
26163;SDS011;13914;48.178;11.716;2022-09-27T06:35:41;5.18;;;0.60;;
26163;SDS011;13914;48.178;11.716;2022-09-27T06:38:10;2.67;;;0.65;;
26163;SDS011;13914;48.178;11.716;2022-09-27T06:40:40;4.90;;;0.95;;
26163;SDS011;13914;48.178;11.716;2022-09-27T06:43:11;1.30;;;0.40;;
26163;SDS011;13914;48.178;11.716;2022-09-27T06:45:40;1.65;;;0.80;;
26163;SDS011;13914;48.178;11.716;2022-09-27T06:48:07;1.20;;;0.50;;
26163;SDS011;13914;48.178;11.716;2022-09-27T06:50:35;1.60;;;0.80;;
26163;SDS011;13914;48.178;11.716;2022-09-27T06:53:05;0.80;;;0.50;;
26163;SDS011;13914;48.178;11.716;2022-09-27T06:55:34;1.10;;;0.55;;
26163;SDS011;13914;48.178;11.716;2022-09-27T06:58:01;1.35;;;0.55;;
26163;SDS011;13914;48.178;11.716;2022-09-27T07:00:49;2.57;;;0.70;;
26163;SDS011;13914;48.178;11.716;2022-09-27T07:03:17;2.58;;;0.55;;
26163;SDS011;13914;48.178;11.716;2022-09-27T07:05:56;1.52;;;0.75;;
26163;SDS011;13914;48.178;11.716;2022-09-27T07:08:25;3.13;;;0.60;;
26163;SDS011;13914;48.178;11.716;2022-09-27T07:10:53;0.82;;;0.40;;
26163;SDS011;13914;48.178;11.716;2022-09-27T07:13:21;2.35;;;0.55;;
26163;SDS011;13914;48.178;11.716;2022-09-27T07:15:47;4.28;;;0.60;;
26163;SDS011;13914;48.178;11.716;2022-09-27T07:18:13;3.03;;;0.60;;
26163;SDS011;13914;48.178;11.716;2022-09-27T07:20:39;5.82;;;1.02;;
26163;SDS011;13914;48.178;11.716;2022-09-27T07:23:05;2.53;;;0.50;;
26163;SDS011;13914;48.178;11.716;2022-09-27T07:25:33;2.47;;;0.60;;
26163;SDS011;13914;48.178;11.716;2022-09-27T07:28:00;1.35;;;0.43;;
26163;SDS011;13914;48.178;11.716;2022-09-27T07:30:27;4.13;;;0.70;;
26163;SDS011;13914;48.178;11.716;2022-09-27T07:32:57;2.33;;;0.80;;
26163;SDS011;13914;48.178;11.716;2022-09-27T07:35:25;3.63;;;0.77;;
26163;SDS011;13914;48.178;11.716;2022-09-27T07:37:52;5.28;;;0.77;;
26163;SDS011;13914;48.178;11.716;2022-09-27T07:40:18;5.28;;;1.10;;
26163;SDS011;13914;48.178;11.716;2022-09-27T07:42:44;2.63;;;0.68;;
26163;SDS011;13914;48.178;11.716;2022-09-27T07:45:10;3.17;;;0.80;;
26163;SDS011;13914;48.178;11.716;2022-09-27T07:47:37;2.38;;;0.55;;
26163;SDS011;13914;48.178;11.716;2022-09-27T07:50:05;2.00;;;0.60;;
26163;SDS011;13914;48.178;11.716;2022-09-27T07:52:38;2.42;;;0.60;;
26163;SDS011;13914;48.178;11.716;2022-09-27T07:55:06;5.50;;;0.90;;
26163;SDS011;13914;48.178;11.716;2022-09-27T07:57:34;1.88;;;0.80;;
26163;SDS011;13914;48.178;11.716;2022-09-27T08:00:05;2.70;;;0.47;;
26163;SDS011;13914;48.178;11.716;2022-09-27T08:02:34;1.75;;;0.57;;
26163;SDS011;13914;48.178;11.716;2022-09-27T08:05:00;3.30;;;0.52;;
26163;SDS011;13914;48.178;11.716;2022-09-27T08:07:27;2.33;;;0.75;;
26163;SDS011;13914;48.178;11.716;2022-09-27T08:12:20;1.02;;;0.50;;
26163;SDS011;13914;48.178;11.716;2022-09-27T08:17:13;1.85;;;0.70;;
26163;SDS011;13914;48.178;11.716;2022-09-27T08:19:39;1.60;;;0.38;;
26163;SDS011;13914;48.178;11.716;2022-09-27T08:24:32;2.70;;;0.40;;
26163;SDS011;13914;48.178;11.716;2022-09-27T08:26:58;2.88;;;0.40;;
26163;SDS011;13914;48.178;11.716;2022-09-27T08:29:24;1.25;;;0.35;;
26163;SDS011;13914;48.178;11.716;2022-09-27T08:31:50;0.30;;;0.20;;
26163;SDS011;13914;48.178;11.716;2022-09-27T08:34:18;2.50;;;0.40;;
26163;SDS011;13914;48.178;11.716;2022-09-27T08:36:47;1.27;;;0.40;;
26163;SDS011;13914;48.178;11.716;2022-09-27T08:39:13;4.00;;;0.47;;
26163;SDS011;13914;48.178;11.716;2022-09-27T08:41:49;0.88;;;0.20;;
26163;SDS011;13914;48.178;11.716;2022-09-27T08:44:32;0.65;;;0.20;;
26163;SDS011;13914;48.178;11.716;2022-09-27T08:47:22;2.33;;;0.30;;
26163;SDS011;13914;48.178;11.716;2022-09-27T08:50:22;0.68;;;0.20;;
26163;SDS011;13914;48.178;11.716;2022-09-27T08:55:48;0.95;;;0.30;;
26163;SDS011;13914;48.178;11.716;2022-09-27T08:58:30;1.05;;;0.40;;
26163;SDS011;13914;48.178;11.716;2022-09-27T09:01:16;0.50;;;0.20;;
26163;SDS011;13914;48.178;11.716;2022-09-27T09:03:47;0.98;;;0.40;;
26163;SDS011;13914;48.178;11.716;2022-09-27T09:06:33;2.25;;;0.40;;
26163;SDS011;13914;48.178;11.716;2022-09-27T09:24:17;1.20;;;0.30;;
26163;SDS011;13914;48.178;11.716;2022-09-27T09:30:04;0.77;;;0.30;;
26163;SDS011;13914;48.178;11.716;2022-09-27T09:35:45;0.50;;;0.30;;
26163;SDS011;13914;48.178;11.716;2022-09-27T09:38:36;0.68;;;0.13;;
26163;SDS011;13914;48.178;11.716;2022-09-27T09:46:12;0.43;;;0.10;;
26163;SDS011;13914;48.178;11.716;2022-09-27T09:49:17;1.58;;;0.35;;
26163;SDS011;13914;48.178;11.716;2022-09-27T09:51:52;1.00;;;0.30;;
26163;SDS011;13914;48.178;11.716;2022-09-27T09:54:29;1.10;;;0.30;;
26163;SDS011;13914;48.178;11.716;2022-09-27T09:57:04;0.10;;;0.10;;
26163;SDS011;13914;48.178;11.716;2022-09-27T10:02:31;0.98;;;0.22;;
26163;SDS011;13914;48.178;11.716;2022-09-27T10:05:05;0.35;;;0.20;;
26163;SDS011;13914;48.178;11.716;2022-09-27T10:07:32;0.95;;;0.20;;
26163;SDS011;13914;48.178;11.716;2022-09-27T10:10:03;0.68;;;0.20;;
26163;SDS011;13914;48.178;11.716;2022-09-27T10:12:31;2.70;;;0.30;;
26163;SDS011;13914;48.178;11.716;2022-09-27T10:14:58;3.47;;;0.30;;
26163;SDS011;13914;48.178;11.716;2022-09-27T10:17:33;1.08;;;0.30;;
26163;SDS011;13914;48.178;11.716;2022-09-27T10:20:03;0.98;;;0.30;;
26163;SDS011;13914;48.178;11.716;2022-09-27T10:22:53;0.98;;;0.20;;
26163;SDS011;13914;48.178;11.716;2022-09-27T10:25:24;0.93;;;0.20;;
26163;SDS011;13914;48.178;11.716;2022-09-27T10:28:10;2.13;;;0.22;;
26163;SDS011;13914;48.178;11.716;2022-09-27T10:30:59;1.13;;;0.20;;
26163;SDS011;13914;48.178;11.716;2022-09-27T10:33:36;1.48;;;0.20;;
26163;SDS011;13914;48.178;11.716;2022-09-27T10:36:25;1.58;;;0.40;;
26163;SDS011;13914;48.178;11.716;2022-09-27T10:38:57;0.55;;;0.17;;
26163;SDS011;13914;48.178;11.716;2022-09-27T10:46:44;4.28;;;0.22;;
26163;SDS011;13914;48.178;11.716;2022-09-27T10:49:19;0.22;;;0.20;;
26163;SDS011;13914;48.178;11.716;2022-09-27T10:51:56;1.75;;;0.17;;
26163;SDS011;13914;48.178;11.716;2022-09-27T10:54:40;2.25;;;0.32;;
26163;SDS011;13914;48.178;11.716;2022-09-27T10:57:18;1.58;;;0.30;;
26163;SDS011;13914;48.178;11.716;2022-09-27T10:59:55;0.93;;;0.30;;
26163;SDS011;13914;48.178;11.716;2022-09-27T11:02:34;1.55;;;0.20;;
26163;SDS011;13914;48.178;11.716;2022-09-27T11:07:27;0.33;;;0.20;;
26163;SDS011;13914;48.178;11.716;2022-09-27T11:09:54;0.50;;;0.20;;
26163;SDS011;13914;48.178;11.716;2022-09-27T11:12:27;3.50;;;0.30;;
26163;SDS011;13914;48.178;11.716;2022-09-27T11:14:55;0.63;;;0.22;;
26163;SDS011;13914;48.178;11.716;2022-09-27T11:26:07;5.00;;;0.50;;
26163;SDS011;13914;48.178;11.716;2022-09-27T11:29:14;0.50;;;0.20;;
26163;SDS011;13914;48.178;11.716;2022-09-27T11:34:34;1.80;;;0.47;;
26163;SDS011;13914;48.178;11.716;2022-09-27T11:54:02;2.30;;;0.43;;
26163;SDS011;13914;48.178;11.716;2022-09-27T12:07:44;0.32;;;0.20;;
26163;SDS011;13914;48.178;11.716;2022-09-27T12:10:30;2.55;;;0.40;;
26163;SDS011;13914;48.178;11.716;2022-09-27T12:12:56;1.15;;;0.35;;
26163;SDS011;13914;48.178;11.716;2022-09-27T12:15:28;3.92;;;0.20;;
26163;SDS011;13914;48.178;11.716;2022-09-27T12:20:49;0.90;;;0.20;;
26163;SDS011;13914;48.178;11.716;2022-09-27T12:25:55;1.02;;;0.22;;
26163;SDS011;13914;48.178;11.716;2022-09-27T12:31:29;2.05;;;0.50;;
26163;SDS011;13914;48.178;11.716;2022-09-27T12:51:44;2.60;;;0.40;;
26163;SDS011;13914;48.178;11.716;2022-09-27T12:57:41;0.63;;;0.32;;
26163;SDS011;13914;48.178;11.716;2022-09-27T13:14:01;2.38;;;0.45;;
26163;SDS011;13914;48.178;11.716;2022-09-27T13:16:28;4.60;;;0.38;;
26163;SDS011;13914;48.178;11.716;2022-09-27T13:18:55;4.47;;;0.40;;
26163;SDS011;13914;48.178;11.716;2022-09-27T13:32:34;3.33;;;0.68;;
26163;SDS011;13914;48.178;11.716;2022-09-27T13:35:10;1.58;;;0.57;;
26163;SDS011;13914;48.178;11.716;2022-09-27T13:37:56;2.25;;;0.40;;
26163;SDS011;13914;48.178;11.716;2022-09-27T13:40:30;1.17;;;0.47;;
26163;SDS011;13914;48.178;11.716;2022-09-27T13:48:23;1.23;;;0.38;;
26163;SDS011;13914;48.178;11.716;2022-09-27T13:51:27;0.68;;;0.20;;
26163;SDS011;13914;48.178;11.716;2022-09-27T13:54:04;1.65;;;0.40;;
26163;SDS011;13914;48.178;11.716;2022-09-27T14:00:20;7.20;;;0.43;;
26163;SDS011;13914;48.178;11.716;2022-09-27T14:05:40;1.15;;;0.30;;
26163;SDS011;13914;48.178;11.716;2022-09-27T14:08:30;5.25;;;0.50;;
26163;SDS011;13914;48.178;11.716;2022-09-27T14:11:01;1.65;;;0.28;;
26163;SDS011;13914;48.178;11.716;2022-09-27T14:13:34;4.63;;;0.32;;
26163;SDS011;13914;48.178;11.716;2022-09-27T14:16:03;1.52;;;0.40;;
26163;SDS011;13914;48.178;11.716;2022-09-27T14:18:31;4.63;;;0.60;;
26163;SDS011;13914;48.178;11.716;2022-09-27T14:21:24;0.63;;;0.32;;
26163;SDS011;13914;48.178;11.716;2022-09-27T14:24:16;1.10;;;0.30;;
26163;SDS011;13914;48.178;11.716;2022-09-27T14:29:54;0.77;;;0.17;;
26163;SDS011;13914;48.178;11.716;2022-09-27T14:32:31;4.13;;;0.52;;
26163;SDS011;13914;48.178;11.716;2022-09-27T14:35:06;1.30;;;0.30;;
26163;SDS011;13914;48.178;11.716;2022-09-27T14:37:59;0.85;;;0.38;;
26163;SDS011;13914;48.178;11.716;2022-09-27T14:40:27;3.33;;;0.30;;
26163;SDS011;13914;48.178;11.716;2022-09-27T14:42:54;1.77;;;0.30;;
26163;SDS011;13914;48.178;11.716;2022-09-27T14:45:35;2.22;;;0.32;;
26163;SDS011;13914;48.178;11.716;2022-09-27T14:50:57;2.67;;;0.30;;
26163;SDS011;13914;48.178;11.716;2022-09-27T14:53:35;5.05;;;1.10;;
26163;SDS011;13914;48.178;11.716;2022-09-27T14:56:16;5.28;;;0.38;;
26163;SDS011;13914;48.178;11.716;2022-09-27T14:58:53;2.78;;;0.30;;
26163;SDS011;13914;48.178;11.716;2022-09-27T15:01:26;11.43;;;1.02;;
26163;SDS011;13914;48.178;11.716;2022-09-27T15:03:55;2.85;;;0.20;;
26163;SDS011;13914;48.178;11.716;2022-09-27T15:06:28;4.20;;;0.85;;
26163;SDS011;13914;48.178;11.716;2022-09-27T15:08:54;1.33;;;0.20;;
26163;SDS011;13914;48.178;11.716;2022-09-27T15:11:20;0.82;;;0.20;;
26163;SDS011;13914;48.178;11.716;2022-09-27T15:13:48;0.60;;;0.30;;
26163;SDS011;13914;48.178;11.716;2022-09-27T15:16:16;2.78;;;0.40;;
26163;SDS011;13914;48.178;11.716;2022-09-27T15:18:46;6.22;;;0.57;;
26163;SDS011;13914;48.178;11.716;2022-09-27T15:21:28;2.97;;;0.43;;
26163;SDS011;13914;48.178;11.716;2022-09-27T15:23:59;5.60;;;0.52;;
26163;SDS011;13914;48.178;11.716;2022-09-27T15:26:34;4.75;;;0.32;;
26163;SDS011;13914;48.178;11.716;2022-09-27T15:29:04;4.95;;;0.30;;
26163;SDS011;13914;48.178;11.716;2022-09-27T15:33:59;9.23;;;0.60;;
26163;SDS011;13914;48.178;11.716;2022-09-27T15:39:29;10.82;;;1.10;;
26163;SDS011;13914;48.178;11.716;2022-09-27T15:41:59;3.47;;;0.30;;
26163;SDS011;13914;48.178;11.716;2022-09-27T15:49:56;1.10;;;0.40;;
26163;SDS011;13914;48.178;11.716;2022-09-27T15:52:38;3.55;;;0.40;;
26163;SDS011;13914;48.178;11.716;2022-09-27T15:55:17;7.18;;;0.88;;
26163;SDS011;13914;48.178;11.716;2022-09-27T15:57:45;2.63;;;0.50;;
26163;SDS011;13914;48.178;11.716;2022-09-27T16:00:17;4.47;;;0.50;;
26163;SDS011;13914;48.178;11.716;2022-09-27T16:02:44;4.07;;;0.93;;
26163;SDS011;13914;48.178;11.716;2022-09-27T16:07:37;1.40;;;0.63;;
26163;SDS011;13914;48.178;11.716;2022-09-27T16:10:23;12.10;;;3.75;;
26163;SDS011;13914;48.178;11.716;2022-09-27T16:13:01;5.30;;;2.97;;
26163;SDS011;13914;48.178;11.716;2022-09-27T16:15:27;10.73;;;2.40;;
26163;SDS011;13914;48.178;11.716;2022-09-27T16:17:53;4.88;;;2.80;;
26163;SDS011;13914;48.178;11.716;2022-09-27T16:20:22;6.20;;;2.25;;
26163;SDS011;13914;48.178;11.716;2022-09-27T16:22:54;8.00;;;3.03;;
26163;SDS011;13914;48.178;11.716;2022-09-27T16:25:20;11.02;;;4.95;;
26163;SDS011;13914;48.178;11.716;2022-09-27T16:27:47;4.30;;;1.88;;
26163;SDS011;13914;48.178;11.716;2022-09-27T16:30:14;10.63;;;1.40;;
26163;SDS011;13914;48.178;11.716;2022-09-27T16:32:44;4.38;;;1.60;;
26163;SDS011;13914;48.178;11.716;2022-09-27T16:35:12;3.80;;;0.90;;
26163;SDS011;13914;48.178;11.716;2022-09-27T16:37:41;4.57;;;1.25;;
26163;SDS011;13914;48.178;11.716;2022-09-27T16:40:07;6.35;;;1.23;;
26163;SDS011;13914;48.178;11.716;2022-09-27T16:42:35;2.97;;;1.15;;
26163;SDS011;13914;48.178;11.716;2022-09-27T16:45:02;3.83;;;1.65;;
26163;SDS011;13914;48.178;11.716;2022-09-27T16:47:30;2.65;;;1.20;;
26163;SDS011;13914;48.178;11.716;2022-09-27T16:49:56;11.52;;;1.50;;
26163;SDS011;13914;48.178;11.716;2022-09-27T16:52:40;6.85;;;1.10;;
26163;SDS011;13914;48.178;11.716;2022-09-27T16:55:08;4.25;;;1.05;;
26163;SDS011;13914;48.178;11.716;2022-09-27T16:57:34;5.13;;;0.88;;
26163;SDS011;13914;48.178;11.716;2022-09-27T17:00:00;6.60;;;1.02;;
26163;SDS011;13914;48.178;11.716;2022-09-27T17:02:26;3.35;;;1.10;;
26163;SDS011;13914;48.178;11.716;2022-09-27T17:04:52;4.07;;;0.70;;
26163;SDS011;13914;48.178;11.716;2022-09-27T17:07:18;11.13;;;1.40;;
26163;SDS011;13914;48.178;11.716;2022-09-27T17:09:45;2.17;;;1.20;;
26163;SDS011;13914;48.178;11.716;2022-09-27T17:12:11;2.35;;;1.25;;
26163;SDS011;13914;48.178;11.716;2022-09-27T17:14:38;5.95;;;1.40;;
26163;SDS011;13914;48.178;11.716;2022-09-27T17:17:04;3.72;;;0.90;;
26163;SDS011;13914;48.178;11.716;2022-09-27T17:19:30;1.92;;;0.85;;
26163;SDS011;13914;48.178;11.716;2022-09-27T17:21:56;2.90;;;1.30;;
26163;SDS011;13914;48.178;11.716;2022-09-27T17:24:22;2.30;;;0.98;;
26163;SDS011;13914;48.178;11.716;2022-09-27T17:26:48;6.20;;;1.20;;
26163;SDS011;13914;48.178;11.716;2022-09-27T17:29:16;6.70;;;0.70;;
26163;SDS011;13914;48.178;11.716;2022-09-27T17:31:42;5.15;;;0.90;;
26163;SDS011;13914;48.178;11.716;2022-09-27T17:36:37;9.98;;;1.80;;
26163;SDS011;13914;48.178;11.716;2022-09-27T17:39:06;12.00;;;4.82;;
26163;SDS011;13914;48.178;11.716;2022-09-27T17:41:36;14.15;;;3.38;;
26163;SDS011;13914;48.178;11.716;2022-09-27T17:44:02;4.35;;;2.15;;
26163;SDS011;13914;48.178;11.716;2022-09-27T17:48:58;6.82;;;1.45;;
26163;SDS011;13914;48.178;11.716;2022-09-27T17:51:47;7.70;;;1.67;;
26163;SDS011;13914;48.178;11.716;2022-09-27T17:54:16;5.05;;;1.77;;
26163;SDS011;13914;48.178;11.716;2022-09-27T17:56:44;6.22;;;1.48;;
26163;SDS011;13914;48.178;11.716;2022-09-27T17:59:12;4.03;;;1.40;;
26163;SDS011;13914;48.178;11.716;2022-09-27T18:01:40;7.30;;;1.65;;
26163;SDS011;13914;48.178;11.716;2022-09-27T18:04:08;4.45;;;1.38;;
26163;SDS011;13914;48.178;11.716;2022-09-27T18:06:37;4.40;;;1.35;;
26163;SDS011;13914;48.178;11.716;2022-09-27T18:09:08;4.15;;;1.30;;
26163;SDS011;13914;48.178;11.716;2022-09-27T18:11:35;6.40;;;2.58;;
26163;SDS011;13914;48.178;11.716;2022-09-27T18:14:03;2.80;;;0.93;;
26163;SDS011;13914;48.178;11.716;2022-09-27T18:16:30;3.78;;;1.20;;
26163;SDS011;13914;48.178;11.716;2022-09-27T18:19:03;4.32;;;0.90;;
26163;SDS011;13914;48.178;11.716;2022-09-27T18:21:32;4.00;;;1.20;;
26163;SDS011;13914;48.178;11.716;2022-09-27T18:23:59;4.10;;;1.35;;
26163;SDS011;13914;48.178;11.716;2022-09-27T18:26:30;4.72;;;1.00;;
26163;SDS011;13914;48.178;11.716;2022-09-27T18:29:01;3.10;;;1.00;;
26163;SDS011;13914;48.178;11.716;2022-09-27T18:31:33;4.35;;;1.40;;
26163;SDS011;13914;48.178;11.716;2022-09-27T18:34:00;7.53;;;1.65;;
26163;SDS011;13914;48.178;11.716;2022-09-27T18:36:27;2.85;;;0.90;;
26163;SDS011;13914;48.178;11.716;2022-09-27T18:38:57;3.28;;;1.48;;